• Join FlightAware (Why Join?)
  • Login
  • US Flag 
10:52AM EDT


 

Airport Tracker/Info


-or-


 

Live Flight TrackerFlight Track Log ✈ N9191V ✈ 02-May-2013 ✈ KALB - KANP

Flight Track Log - Related Links

Times and Time Zones

All times are in EDT time to prevent confusion due to time zone crossing. See the N9191V flight status page for this flight to view local times or setup timezone preferences in your user account.

Time Position Orientation Groundspeed Altitude Reporting Facility
EDT Latitude Longitude Course Direction KTS MPH feet Rate Location/Type
02:24PM 42.7631 -73.8061 359° North 84 97 800  Level Boston Center
02:25PM 42.7797 -73.8064 359° North 93 107 1,100 420 Climbing Boston Center
02:26PM 42.7750 -73.8544 262° West 109 125 1,700 420 Climbing Boston Center
02:27PM 42.7478 -73.8764 211° Southwest 107 123 2,200 480 Climbing Boston Center
02:28PM 42.7331 -73.8900 214° Southwest 107 123 2,500 360 Climbing Boston Center
02:29PM 42.7075 -73.9150 216° Southwest 110 127 2,800 420 Climbing Boston Center
02:30PM 42.6822 -73.9342 209° Southwest 109 125 3,400 540 Climbing Boston Center
02:31PM 42.6569 -73.9561 213° Southwest 105 121 4,000 540 Climbing Boston Center
02:32PM 42.6275 -73.9808 212° Southwest 108 124 4,600 480 Climbing Boston Center
02:33PM 42.6022 -74.0028 213° Southwest 108 124 5,100 420 Climbing Boston Center
02:34PM 42.5789 -74.0247 215° Southwest 111 128 5,500 360 Climbing Boston Center
02:35PM 42.5517 -74.0467 211° Southwest 116 133 5,900 480 Climbing Boston Center
02:36PM 42.5222 -74.0683 208° Southwest 120 138 6,500 600 Climbing Boston Center
02:37PM 42.4947 -74.0872 207° Southwest 118 136 7,100 480 Climbing Boston Center
02:38PM 42.4653 -74.1092 209° Southwest 121 139 7,500 360 Climbing Boston Center
02:39PM 42.4400 -74.1308 212° Southwest 126 145 7,900 420 Climbing Boston Center
02:40PM 42.4019 -74.1608 210° Southwest 126 145 8,500 300 Climbing Boston Center
02:41PM 42.3661 -74.1908 212° Southwest 134 154 8,600  Climbing Boston Center
02:42PM 42.3322 -74.2150 208° Southwest 147 169 8,600  Level Boston Center
02:43PM 42.2881 -74.2503 211° Southwest 163 188 8,600  Level Boston Center
02:44PM 42.2542 -74.2775 211° Southwest 163 188 8,600  Level Boston Center
02:45PM 42.2100 -74.3069 206° Southwest 163 188 8,600  Level Boston Center
02:46PM 42.1761 -74.3311 208° Southwest 163 188 8,600  Level Boston Center
02:47PM 42.1339 -74.3606 207° Southwest 163 188 8,600  Level Boston Center
02:48PM 42.0981 -74.3847 207° Southwest 163 188 8,600  Level Boston Center
02:49PM 42.0539 -74.4169 208° Southwest 163 188 8,600  Level Boston Center
02:50PM 42.0158 -74.4408 205° Southwest 163 188 8,600  Level Boston Center
02:51PM 41.9736 -74.4703 207° Southwest 163 188 8,700  Climbing Boston Center
02:52PM 41.9358 -74.4942 205° Southwest 163 188 8,600 -60 Descending Boston Center
02:53PM 41.8914 -74.5289 210° Southwest 168 193 8,600  Level Boston Center
02:54PM 41.8533 -74.5583 210° Southwest 168 193 8,600  Level Boston Center
02:55PM 41.8089 -74.5931 210° Southwest 168 193 8,600 -60 Level Boston Center
02:56PM 41.7686 -74.6250 211° Southwest 168 193 8,500 -60 Descending Boston Center
02:57PM 41.7283 -74.6600 213° Southwest 168 193 8,500 60 Level Boston Center
02:58PM 41.6881 -74.6892 208° Southwest 168 193 8,700  Climbing Boston Center
03:00PM 41.6378 -74.7144 201° Southwest  Level FlightAware Approximate
03:02PM 41.5339 -74.8114 209° Southwest 174 200 8,700  Level New York Center
03:03PM 41.4892 -74.8447 209° Southwest 174 200 8,600  Descending New York Center
03:04PM 41.4547 -74.8731 212° Southwest 174 200 8,700  Climbing New York Center
03:05PM 41.4100 -74.9036 207° Southwest 169 194 8,700  Level New York Center
03:06PM 41.3714 -74.9400 215° Southwest 169 194 8,700 -60 Level New York Center
03:07PM 41.3721 -74.8920 209° Southwest  Level FlightAware Approximate
03:07PM 41.3347 -74.9681 210° Southwest 169 194 8,600  Level New York Center
03:08PM 41.2900 -75.0011 209° Southwest 169 194 8,600  Level New York Center
03:09PM 41.2492 -75.0317 209° Southwest 169 194 8,700  Climbing New York Center
03:10PM 41.2086 -75.0622 210° Southwest 169 194 8,700  Level New York Center
03:11PM 41.1722 -75.0875 208° Southwest 169 194 8,700  Level New York Center
03:12PM 41.1294 -75.1178 208° Southwest 164 189 8,700  Level New York Center
03:13PM 41.0867 -75.1508 210° Southwest 164 189 8,700  Level New York Center
03:14PM 41.0439 -75.1783 206° Southwest 164 189 8,700  Level New York Center
03:15PM 41.0056 -75.2033 206° Southwest 172 198 8,700  Level New York Center
03:16PM 40.9628 -75.2336 208° Southwest 172 198 8,700  Level New York Center
03:17PM 40.9200 -75.2636 208° Southwest 172 198 8,700  Level New York Center
03:18PM 40.8772 -75.2911 206° Southwest 172 198 8,700  Level New York Center
03:19PM 40.8386 -75.3186 208° Southwest 166 191 8,700  Level New York Center
03:20PM 40.8000 -75.3461 208° Southwest 166 191 8,700  Level New York Center
03:21PM 40.7550 -75.3761 207° Southwest 166 191 8,700  Level New York Center
03:22PM 40.7144 -75.4036 207° Southwest 166 191 8,700  Level New York Center
03:23PM 40.6717 -75.4308 206° Southwest 166 191 8,700  Level New York Center
03:24PM 40.6375 -75.4558 209° Southwest 166 191 8,700  Level New York Center
03:25PM 40.5967 -75.4831 207° Southwest 166 191 8,700  Level New York Center
03:26PM 40.5581 -75.5106 208° Southwest 166 191 8,700  Level New York Center
03:27PM 40.5172 -75.5403 209° Southwest 166 191 8,700  Level New York Center
03:28PM 40.4722 -75.5700 207° Southwest 166 191 8,700  Level New York Center
03:29PM 40.4358 -75.5947 207° Southwest 166 191 8,700  Level New York Center
03:30PM 40.3972 -75.6219 208° Southwest 166 191 8,700  Level New York Center
03:31PM 40.3522 -75.6542 209° Southwest 166 191 8,700  Level New York Center
03:32PM 40.3117 -75.6786 205° Southwest 166 191 8,700  Level New York Center
03:33PM 40.2708 -75.7083 209° Southwest 166 191 8,700  Level New York Center
03:34PM 40.2364 -75.7303 206° Southwest 161 185 8,700  Level New York Center
03:35PM 40.1917 -75.7569 204° Southwest 176 203 8,700  Level New York Center
03:36PM 40.1486 -75.7892 210° Southwest 176 203 8,700  Level New York Center
03:37PM 40.1122 -75.8111 205° Southwest 170 196 8,700  Level New York Center
03:38PM 40.0672 -75.8403 206° Southwest 165 190 8,700  Level New York Center
03:39PM 40.0286 -75.8647 206° Southwest 165 190 8,700  Level New York Center
03:40PM 39.9856 -75.8942 208° Southwest 165 190 8,700  Level New York Center
03:41PM 39.9489 -75.9211 209° Southwest 165 190 8,700  Level New York Center
03:42PM 39.9058 -75.9506 208° Southwest 165 190 8,700  Level New York Center
03:43PM 39.8675 -75.9747 206° Southwest 165 190 8,700  Level New York Center
03:44PM 39.8244 -76.0011 205° Southwest 165 190 8,700  Level New York Center
03:45PM 39.7881 -76.0256 207° Southwest 165 190 8,700 -180 Level New York Center
03:48PM 39.6833 -76.0833 203° Southwest 169 194 8,100 -300 Descending Potomac TRACON
03:49PM 39.6333 -76.1167 207° Southwest 172 198 7,700 -480 Descending Potomac TRACON
03:50PM 39.6000 -76.1333 201° Southwest 168 193 7,300 -420 Descending Potomac TRACON
03:51PM 39.5500 -76.1667 207° Southwest 172 198 6,900 -420 Descending Potomac TRACON
03:52PM 39.5167 -76.1833 201° Southwest 167 192 6,500 -480 Descending Potomac TRACON
03:53PM 39.4667 -76.2333 218° Southwest 177 204 6,000 -540 Descending Potomac TRACON
03:54PM 39.4500 -76.2833 247° West 177 204 5,500 -480 Descending Potomac TRACON
03:55PM 39.4167 -76.3333 229° Southwest 175 201 5,100 -300 Descending Potomac TRACON
03:56PM 39.4000 -76.3833 247° West 169 194 4,900 -300 Descending Potomac TRACON
03:57PM 39.3667 -76.4167 218° Southwest 167 192 4,600 -240 Descending Potomac TRACON
03:58PM 39.3167 -76.4500 207° Southwest 159 183 4,500 -60 Descending Potomac TRACON
03:59PM 39.2833 -76.4333 159° South 141 162 4,500  Level Potomac TRACON
04:00PM 39.2500 -76.4167 159° South 143 165 4,500  Level Potomac TRACON
04:01PM 39.2000 -76.4000 166° South 140 161 4,500  Level Potomac TRACON
04:02PM 39.1667 -76.3833 159° South 141 162 4,500  Level Potomac TRACON
04:03PM 39.1333 -76.3667 159° South 144 166 4,500 -300 Level Potomac TRACON
04:04PM 39.1000 -76.3500 159° South 151 174 4,000 -600 Descending Potomac TRACON
04:05PM 39.0500 -76.3667 195° South 161 185 3,400 -660 Descending Potomac TRACON
04:06PM 39.0167 -76.4000 218° Southwest 162 186 2,700 -600 Descending Potomac TRACON
04:07PM 38.9833 -76.4333 218° Southwest 158 182 2,200 -480 Descending Potomac TRACON
04:08PM 38.9500 -76.4667 218° Southwest 156 180 1,800 -420 Descending Potomac TRACON
04:09PM 38.9500 -76.5167 270° West 154 177 1,400 -120 Descending Potomac TRACON
04:10PM 38.9500 -76.5667 270° West 140 161 1,600  Climbing Potomac TRACON
04:11PM 38.9667 -76.6167 293° West 134 154 1,400 -540 Descending Potomac TRACON
04:12PM 38.9500 -76.6000 142° Southeast 104 120 600 -540 Descending Potomac TRACON
04:13PM 38.9500 -76.5667 90° East 91 105 400 -240 Descending Potomac TRACON
04:15PM 38.9429 -76.5684 180° South  Level Estimated
04:22PM 38.9429 -76.5684 210° Southwest  Level Estimated
04:23PM 38.9429 -76.5684 210° Southwest  Level Estimated